createdAt,value
2018-03-03T00:03:35.424Z,122.77
2018-03-03T00:08:31.254Z,109.47
2018-03-03T00:13:25.582Z,100.53
2018-03-03T00:18:21.078Z,115.77
2018-03-03T00:23:15.476Z,113.63
2018-03-03T00:28:09.814Z,113.10
2018-03-03T00:33:04.853Z,105.37
2018-03-03T00:37:59.296Z,110.43
2018-03-03T00:42:53.735Z,110.87
2018-03-03T00:47:48.852Z,105.47
2018-03-03T00:52:44.042Z,94.60
2018-03-03T00:57:38.577Z,83.17
2018-03-03T01:02:33.695Z,110.63
2018-03-03T01:07:28.074Z,112.93
2018-03-03T01:12:22.879Z,107.57
2018-03-03T01:17:17.273Z,101.33
2018-03-03T01:22:11.603Z,106.80
2018-03-03T01:27:06.141Z,103.77
2018-03-03T01:32:01.528Z,110.90
2018-03-03T01:36:55.924Z,117.03
2018-03-03T01:41:50.486Z,104.30
2018-03-03T01:46:44.879Z,127.77
2018-03-03T01:51:43.885Z,116.80
2018-03-03T01:56:39.224Z,117.50
2018-03-03T02:01:33.585Z,127.70
2018-03-03T02:06:28.135Z,108.80
2018-03-03T02:11:22.491Z,117.80
2018-03-03T02:16:16.831Z,118.03
2018-03-03T02:21:11.283Z,112.73
2018-03-03T02:26:05.611Z,117.47
2018-03-03T02:31:00.155Z,114.23
2018-03-03T02:35:54.745Z,109.93
2018-03-03T02:40:50.029Z,114.40
2018-03-03T02:45:44.412Z,103.97
2018-03-03T02:50:38.772Z,98.63
2018-03-03T02:55:33.888Z,95.07
2018-03-03T03:00:28.995Z,86.23
2018-03-03T03:05:24.095Z,83.80
2018-03-03T03:10:18.613Z,95.57
2018-03-03T03:15:12.954Z,103.10
2018-03-03T03:20:07.504Z,90.07
2018-03-03T03:25:01.942Z,84.67
2018-03-03T03:29:57.052Z,102.07
2018-03-03T03:34:52.179Z,94.13
2018-03-03T03:39:47.287Z,103.90
2018-03-03T03:44:41.749Z,76.27
2018-03-03T03:49:35.881Z,97.60
2018-03-03T03:54:31.206Z,66.47
2018-03-03T03:59:25.521Z,94.60
2018-03-03T04:04:20.646Z,81.87
2018-03-03T04:09:15.714Z,90.90
2018-03-03T04:14:10.049Z,90.50
2018-03-03T04:19:05.881Z,97.37
2018-03-03T04:23:59.995Z,86.33
2018-03-03T04:28:54.927Z,98.33
2018-03-03T04:33:49.840Z,92.83
2018-03-03T04:38:44.709Z,99.87
2018-03-03T04:43:38.881Z,81.43
2018-03-03T04:48:33.034Z,87.53
2018-03-03T04:53:28.178Z,68.90
2018-03-03T05:14:21.944Z,90.33
2018-03-03T05:19:21.647Z,79.77
2018-03-03T05:40:29.785Z,90.70
2018-03-03T05:45:27.926Z,98.23
2018-03-03T06:06:29.025Z,88.23
2018-03-03T06:11:23.345Z,81.40
2018-03-03T06:16:18.051Z,82.67
2018-03-03T06:21:12.414Z,89.73
2018-03-03T06:26:06.740Z,74.73
2018-03-03T06:31:01.078Z,86.37
2018-03-03T06:35:55.442Z,87.97
2018-03-03T06:40:49.789Z,91.13
2018-03-03T06:45:44.148Z,89.13
2018-03-03T06:50:38.683Z,84.63
2018-03-03T06:55:32.973Z,87.47
2018-03-03T07:00:27.307Z,81.53
2018-03-03T07:05:23.121Z,89.37
2018-03-03T07:10:17.953Z,81.07
2018-03-03T07:15:23.749Z,89.73
2018-03-03T07:20:21.553Z,86.30
2018-03-03T07:25:16.042Z,86.13
2018-03-03T07:30:10.394Z,81.20
2018-03-03T07:35:05.007Z,78.07
2018-03-03T07:39:59.523Z,87.40
2018-03-03T07:44:53.827Z,84.67
2018-03-03T07:49:47.968Z,84.13
2018-03-03T07:54:42.336Z,86.40
2018-03-03T07:59:37.661Z,90.17
2018-03-03T08:04:31.839Z,83.43
2018-03-03T08:09:26.459Z,81.07
2018-03-03T08:14:21.666Z,87.50
2018-03-03T08:19:16.194Z,86.00
2018-03-03T08:24:10.495Z,89.10
2018-03-03T08:29:04.800Z,71.63
2018-03-03T08:34:00.210Z,89.63
2018-03-03T08:38:55.313Z,80.83
2018-03-03T08:43:49.739Z,80.93
2018-03-03T08:48:44.307Z,85.90
2018-03-03T08:53:38.622Z,77.10
2018-03-03T08:58:35.263Z,89.17
2018-03-03T09:08:28.875Z,89.20
2018-03-03T09:13:23.368Z,82.90
2018-03-03T09:18:17.979Z,86.33
2018-03-03T09:23:12.277Z,87.07
2018-03-03T09:28:06.667Z,85.70
2018-03-03T09:33:01.919Z,82.87
2018-03-03T09:37:56.598Z,89.33
2018-03-03T09:42:51.987Z,78.00
2018-03-03T09:47:46.618Z,66.87
2018-03-03T09:52:42.750Z,83.30
2018-03-03T09:57:37.968Z,75.17
2018-03-03T10:02:32.712Z,81.03
2018-03-03T10:07:27.981Z,82.37
2018-03-03T10:12:22.855Z,77.33
2018-03-03T10:17:17.307Z,76.43
2018-03-03T10:22:12.073Z,80.80
2018-03-03T10:27:06.981Z,77.13
2018-03-03T10:32:01.299Z,84.23
2018-03-03T10:36:56.211Z,82.27
2018-03-03T10:41:50.782Z,78.70
2018-03-03T10:46:45.092Z,86.50
2018-03-03T10:51:39.226Z,79.43
2018-03-03T10:56:34.306Z,84.20
2018-03-03T11:01:29.001Z,80.67
2018-03-03T11:06:24.151Z,75.43
2018-03-03T11:11:18.508Z,77.50
2018-03-03T11:16:12.839Z,71.30
2018-03-03T11:21:07.655Z,64.50
2018-03-03T11:26:02.950Z,78.77
2018-03-03T11:30:57.679Z,68.10
2018-03-03T11:35:52.290Z,71.03
2018-03-03T11:40:47.137Z,73.80
2018-03-03T11:45:42.201Z,72.53
2018-03-03T11:50:36.570Z,74.27
2018-03-03T11:55:31.638Z,71.30
2018-03-03T12:00:26.021Z,80.33
2018-03-03T12:05:20.744Z,75.00
2018-03-03T12:10:15.440Z,79.97
2018-03-03T12:15:10.085Z,76.33
2018-03-03T12:20:04.463Z,79.30
2018-03-03T12:24:58.879Z,77.13
2018-03-03T12:29:53.575Z,77.03
2018-03-03T12:34:48.651Z,66.20
2018-03-03T12:39:43.880Z,70.07
2018-03-03T12:44:38.967Z,71.93
2018-03-03T12:49:33.646Z,64.70
2018-03-03T12:54:28.145Z,66.93
2018-03-03T12:59:22.481Z,63.80
2018-03-03T13:04:17.882Z,73.40
2018-03-03T13:09:12.215Z,66.00
2018-03-03T13:14:06.928Z,58.40
2018-03-03T13:19:02.973Z,64.30
2018-03-03T13:23:57.291Z,58.80
2018-03-03T13:28:52.678Z,64.33
2018-03-03T13:33:47.889Z,63.93
2018-03-03T13:38:42.260Z,63.40
2018-03-03T13:43:37.552Z,68.77
2018-03-03T13:48:32.657Z,60.03
2018-03-03T13:53:27.436Z,68.43
2018-03-03T13:58:22.865Z,65.17
2018-03-03T14:03:17.726Z,56.53
2018-03-03T14:08:12.046Z,71.13
2018-03-03T14:13:07.343Z,63.47
2018-03-03T14:18:02.464Z,57.47
2018-03-03T14:22:57.176Z,66.53
2018-03-03T14:27:52.149Z,67.07
2018-03-03T14:32:46.496Z,71.07
2018-03-03T14:37:41.714Z,66.77
2018-03-03T14:42:36.182Z,70.47
2018-03-03T14:47:30.764Z,73.57
2018-03-03T14:52:25.099Z,69.80
2018-03-03T14:57:19.561Z,62.77
2018-03-03T15:02:15.449Z,61.83
2018-03-03T15:07:10.143Z,50.73
2018-03-03T15:12:04.459Z,59.40
2018-03-03T15:16:58.859Z,63.57
2018-03-03T15:21:53.192Z,61.87
2018-03-03T15:26:48.479Z,54.90
2018-03-03T15:31:45.070Z,49.50
2018-03-03T15:36:39.476Z,51.70
2018-03-03T15:41:34.856Z,59.00
2018-03-03T15:46:29.302Z,59.80
2018-03-03T15:51:23.662Z,59.50
2018-03-03T15:56:17.978Z,57.00
2018-03-03T16:01:12.334Z,59.50
2018-03-03T16:06:07.413Z,64.17
2018-03-03T16:11:01.723Z,62.20
2018-03-03T16:15:56.461Z,60.03
2018-03-03T16:20:51.016Z,62.43
2018-03-03T16:25:45.372Z,58.30
2018-03-03T16:30:39.971Z,60.87
2018-03-03T16:35:35.124Z,52.23
2018-03-03T16:40:29.589Z,65.13
2018-03-03T16:45:24.250Z,67.77
2018-03-03T16:50:18.691Z,60.40
2018-03-03T16:55:12.980Z,58.10
2018-03-03T17:00:07.369Z,61.20
2018-03-03T17:05:01.678Z,62.83
2018-03-03T17:09:56.434Z,64.33
2018-03-03T17:14:50.994Z,55.87
2018-03-03T17:19:46.136Z,66.53
2018-03-03T17:24:40.489Z,67.57
2018-03-03T17:29:35.090Z,72.47
2018-03-03T17:34:32.236Z,73.67
2018-03-03T17:39:27.392Z,77.63
2018-03-03T17:44:21.711Z,72.40
2018-03-03T17:49:16.098Z,66.07
2018-03-03T17:54:10.500Z,74.13
2018-03-03T17:59:04.733Z,72.53
2018-03-03T18:03:59.200Z,71.03
2018-03-03T18:08:53.585Z,81.73
2018-03-03T18:13:53.900Z,70.07
2018-03-03T18:18:48.456Z,79.27
2018-03-03T18:23:42.897Z,78.97
2018-03-03T18:28:37.627Z,80.33
2018-03-03T18:33:31.957Z,80.53
2018-03-03T18:38:26.868Z,72.13
2018-03-03T18:43:22.107Z,79.50
2018-03-03T18:48:16.437Z,82.03
2018-03-03T18:53:10.765Z,73.53
2018-03-03T18:58:06.569Z,75.70
2018-03-03T19:03:00.936Z,75.90
2018-03-03T19:07:55.631Z,68.83
2018-03-03T19:12:50.697Z,84.67
2018-03-03T19:17:45.050Z,83.40
2018-03-03T19:22:40.157Z,82.13
2018-03-03T19:27:34.546Z,88.17
2018-03-03T19:32:28.871Z,74.83
2018-03-03T19:37:23.960Z,89.17
2018-03-03T19:42:18.265Z,80.00
2018-03-03T19:47:12.698Z,74.87
2018-03-03T19:52:07.604Z,81.87
2018-03-03T19:57:02.739Z,86.17
2018-03-03T20:01:57.841Z,88.63
2018-03-03T20:06:52.921Z,99.23
2018-03-03T20:11:47.329Z,94.13
2018-03-03T20:16:41.631Z,83.90
2018-03-03T20:21:35.946Z,80.40
2018-03-03T20:26:30.277Z,87.60
2018-03-03T20:31:25.377Z,78.93
2018-03-03T20:36:19.705Z,94.57
2018-03-03T20:41:14.785Z,91.87
2018-03-03T20:46:09.102Z,95.40
2018-03-03T20:51:03.471Z,94.77
2018-03-03T20:55:57.791Z,78.00
2018-03-03T21:00:52.115Z,88.17
2018-03-03T21:05:47.394Z,88.13
2018-03-03T21:10:41.515Z,92.30
2018-03-03T21:15:35.901Z,81.17
2018-03-03T21:20:30.263Z,93.93
2018-03-03T21:25:25.366Z,91.33
2018-03-03T21:30:20.660Z,87.57
2018-03-03T21:35:14.968Z,84.60
2018-03-03T21:40:09.421Z,93.87
2018-03-03T21:45:03.759Z,89.23
2018-03-03T21:49:58.066Z,90.10
2018-03-03T21:54:52.558Z,75.60
2018-03-03T21:59:46.935Z,86.20
2018-03-03T22:04:41.257Z,84.17
2018-03-03T22:09:35.664Z,94.37
2018-03-03T22:14:30.963Z,82.53
2018-03-03T22:19:25.702Z,87.23
2018-03-03T22:24:20.234Z,88.57
2018-03-03T22:29:14.849Z,94.97
2018-03-03T22:34:10.160Z,93.37
2018-03-03T22:39:04.050Z,95.63
2018-03-03T22:43:58.353Z,92.63
2018-03-03T22:48:52.645Z,91.43
2018-03-03T22:53:47.038Z,83.17
2018-03-03T22:58:41.353Z,86.10
2018-03-03T23:03:35.665Z,87.27
2018-03-03T23:08:29.979Z,98.63
2018-03-03T23:13:25.044Z,92.80
2018-03-03T23:18:19.616Z,93.93
2018-03-03T23:23:15.066Z,84.83
2018-03-03T23:28:09.562Z,92.83
2018-03-03T23:33:04.650Z,95.87
2018-03-03T23:37:59.908Z,92.77
2018-03-03T23:42:55.004Z,94.37
2018-03-03T23:47:50.421Z,94.40
2018-03-03T23:52:44.796Z,83.13
2018-03-03T23:57:38.941Z,100.80
